createdAt,value
2018-12-20T05:48:50.452Z,4.20
2018-12-20T05:51:24.572Z,4.13
2018-12-20T05:53:57.016Z,4.30
2018-12-20T05:56:29.555Z,4.30
2018-12-20T05:59:02.007Z,4.10
2018-12-20T06:01:34.446Z,3.93
2018-12-20T06:04:06.835Z,2.97
2018-12-20T06:06:39.527Z,3.13
2018-12-20T06:09:11.998Z,3.40
2018-12-20T06:11:44.520Z,3.07
2018-12-20T06:14:16.970Z,2.80
2018-12-20T06:16:49.544Z,2.73
2018-12-20T06:19:23.004Z,2.60
2018-12-20T06:21:55.596Z,2.77
2018-12-20T06:24:28.065Z,2.57
2018-12-20T06:27:00.407Z,2.83
2018-12-20T06:29:32.862Z,2.57
2018-12-20T06:32:05.214Z,2.50
2018-12-20T06:34:37.574Z,2.57
2018-12-20T06:37:09.929Z,2.53
2018-12-20T06:39:42.438Z,2.53
2018-12-20T06:42:14.825Z,2.50
2018-12-20T06:44:47.213Z,2.63
2018-12-20T06:47:19.581Z,2.70
2018-12-20T06:49:51.931Z,2.70
2018-12-20T06:52:24.334Z,2.20
2018-12-20T06:54:56.754Z,2.67
2018-12-20T06:57:29.578Z,2.70
2018-12-20T07:00:02.305Z,2.23
2018-12-20T07:02:34.675Z,2.70
2018-12-20T07:05:07.042Z,2.50
2018-12-20T07:07:39.394Z,2.50
2018-12-20T07:10:11.735Z,2.90
2018-12-20T07:12:44.098Z,2.37
2018-12-20T07:15:16.448Z,2.50
2018-12-20T07:17:48.805Z,2.40
2018-12-20T07:20:21.972Z,2.67
2018-12-20T07:22:54.308Z,2.63
2018-12-20T07:25:26.708Z,2.30
2018-12-20T07:27:59.087Z,2.37
2018-12-20T07:30:31.518Z,2.40
2018-12-20T07:33:03.858Z,2.27
2018-12-20T07:35:36.217Z,2.00
2018-12-20T07:38:08.577Z,2.40
2018-12-20T07:40:41.484Z,2.30
2018-12-20T07:43:13.826Z,2.10
2018-12-20T07:45:46.224Z,2.37
2018-12-20T07:48:18.608Z,2.20
2018-12-20T07:50:50.983Z,2.13
2018-12-20T07:53:23.585Z,1.90
2018-12-20T07:55:55.937Z,2.13
2018-12-20T07:58:28.567Z,2.27
2018-12-20T08:01:00.939Z,2.57
2018-12-20T08:03:33.658Z,2.40
2018-12-20T08:06:06.030Z,2.23
2018-12-20T08:08:38.401Z,2.33
2018-12-20T08:11:10.758Z,2.33
2018-12-20T08:13:43.513Z,2.33
2018-12-20T08:16:16.152Z,2.10
2018-12-20T08:18:48.505Z,2.10
2018-12-20T08:21:20.843Z,2.20
2018-12-20T08:23:53.207Z,2.03
2018-12-20T08:26:25.563Z,2.60
2018-12-20T08:28:57.906Z,2.80
2018-12-20T08:31:30.497Z,2.80
2018-12-20T08:34:02.863Z,2.97
2018-12-20T08:36:35.304Z,2.53
2018-12-20T08:39:07.738Z,3.37
2018-12-20T08:41:40.099Z,2.80
2018-12-20T08:44:12.485Z,2.47
2018-12-20T08:46:44.854Z,2.63
2018-12-20T08:49:17.214Z,2.77
2018-12-20T08:51:50.401Z,2.60
2018-12-20T08:54:23.190Z,2.83
2018-12-20T08:56:55.794Z,2.90
2018-12-20T08:59:28.217Z,2.67
2018-12-20T09:02:00.599Z,2.50
2018-12-20T09:04:32.958Z,2.60
2018-12-20T09:07:05.315Z,2.77
2018-12-20T09:09:37.716Z,3.13
2018-12-20T09:12:10.056Z,2.73
2018-12-20T09:14:42.454Z,2.60
2018-12-20T09:17:14.798Z,2.87
2018-12-20T09:19:47.194Z,2.53
2018-12-20T09:22:19.678Z,2.60
2018-12-20T09:24:52.070Z,2.80
2018-12-20T09:27:24.400Z,2.43
2018-12-20T09:29:56.746Z,2.50
2018-12-20T09:32:29.141Z,2.10
2018-12-20T09:35:01.477Z,2.50
2018-12-20T09:37:33.827Z,2.33
2018-12-20T09:40:06.179Z,2.87
2018-12-20T09:42:38.779Z,2.40
2018-12-20T09:45:11.131Z,3.37
2018-12-20T09:47:43.790Z,2.20
2018-12-20T09:50:16.507Z,2.20
2018-12-20T09:52:49.091Z,2.47
2018-12-20T09:55:21.435Z,2.33
2018-12-20T09:57:53.766Z,2.20
2018-12-20T10:00:26.410Z,2.70
2018-12-20T10:02:58.743Z,2.27
2018-12-20T10:05:31.079Z,2.33
2018-12-20T10:08:03.445Z,7.93
2018-12-20T10:10:35.787Z,3.33
2018-12-20T10:13:08.441Z,2.53
2018-12-20T10:15:40.847Z,2.43
2018-12-20T10:18:13.285Z,3.60
2018-12-20T10:20:45.652Z,2.97
2018-12-20T10:23:18.015Z,2.90
2018-12-20T10:25:50.601Z,2.40
2018-12-20T10:28:22.963Z,2.57
2018-12-20T10:30:55.314Z,2.90
2018-12-20T10:33:28.127Z,3.83
2018-12-20T10:36:00.490Z,2.70
2018-12-20T10:38:32.869Z,2.67
2018-12-20T10:41:05.333Z,2.97
2018-12-20T10:43:37.700Z,2.17
2018-12-20T10:46:10.067Z,2.10
2018-12-20T10:48:42.407Z,2.20
2018-12-20T10:51:15.083Z,2.27
2018-12-20T10:53:47.434Z,2.13
2018-12-20T10:56:19.799Z,2.10
2018-12-20T10:58:52.157Z,2.10
2018-12-20T11:01:24.514Z,1.93
2018-12-20T11:03:56.873Z,1.83
2018-12-20T11:06:29.261Z,1.90
2018-12-20T11:09:01.624Z,2.27
2018-12-20T11:11:33.968Z,1.90
2018-12-20T11:14:06.299Z,1.97
2018-12-20T11:16:38.641Z,2.03
2018-12-20T11:19:10.978Z,2.43
2018-12-20T11:21:45.681Z,2.10
2018-12-20T11:24:17.966Z,1.80
2018-12-20T11:26:50.598Z,1.87
2018-12-20T11:29:22.952Z,1.80
2018-12-20T11:31:55.315Z,1.80
2018-12-20T11:34:27.662Z,1.60
2018-12-20T11:37:00.006Z,2.20
2018-12-20T11:39:32.357Z,2.50
2018-12-20T11:42:04.689Z,2.10
2018-12-20T11:44:37.011Z,1.80
2018-12-20T11:47:09.360Z,2.07
2018-12-20T11:49:41.796Z,1.83
2018-12-20T11:52:14.122Z,1.50
2018-12-20T11:54:46.470Z,1.50
2018-12-20T11:57:18.809Z,1.60
2018-12-20T11:59:51.138Z,1.67
2018-12-20T12:02:24.581Z,1.87
2018-12-20T12:04:57.270Z,1.50
2018-12-20T12:07:29.694Z,1.60
2018-12-20T12:10:02.044Z,1.60
2018-12-20T12:12:34.487Z,2.50
2018-12-20T12:15:07.677Z,2.13
2018-12-20T12:17:40.006Z,1.80
2018-12-20T12:20:12.351Z,2.20
2018-12-20T12:22:44.698Z,1.87
2018-12-20T12:25:17.025Z,2.00
2018-12-20T12:27:49.382Z,2.90
2018-12-20T12:30:21.743Z,3.20
2018-12-20T12:32:54.082Z,2.70
2018-12-20T12:35:26.417Z,2.40
2018-12-20T12:37:58.965Z,2.10
2018-12-20T12:40:31.282Z,1.97
2018-12-20T12:43:03.631Z,1.97
2018-12-20T12:45:35.992Z,1.93
2018-12-20T12:48:08.402Z,1.90
2018-12-20T12:50:40.734Z,2.27
2018-12-20T12:53:13.079Z,2.47
2018-12-20T12:55:45.426Z,2.10
2018-12-20T12:58:17.794Z,2.60
2018-12-20T13:00:50.159Z,2.63
2018-12-20T13:03:22.528Z,2.40
2018-12-20T13:05:54.885Z,2.40
2018-12-20T13:08:27.262Z,1.70
2018-12-20T13:10:59.594Z,1.60
2018-12-20T13:13:32.035Z,1.93
2018-12-20T13:16:04.386Z,1.73
2018-12-20T13:18:37.381Z,1.63
2018-12-20T13:21:09.952Z,1.97
2018-12-20T13:23:42.590Z,1.60
2018-12-20T13:26:14.938Z,2.00
2018-12-20T13:28:47.303Z,2.40
2018-12-20T13:31:19.626Z,2.00
2018-12-20T13:33:52.294Z,1.97
2018-12-20T13:36:24.951Z,1.97
2018-12-20T13:38:57.383Z,2.17
2018-12-20T13:41:29.710Z,2.03
2018-12-20T13:44:02.149Z,2.03
2018-12-20T13:46:34.490Z,2.07
2018-12-20T13:49:07.371Z,3.67
2018-12-20T13:51:39.717Z,2.40
2018-12-20T13:54:12.074Z,2.10
2018-12-20T13:56:44.406Z,2.37
2018-12-20T13:59:17.019Z,2.10
2018-12-20T14:01:49.367Z,1.90
2018-12-20T14:04:21.726Z,2.03
2018-12-20T14:06:54.062Z,2.53
2018-12-20T14:09:27.439Z,2.37
2018-12-20T14:11:59.774Z,2.70
2018-12-20T14:14:32.147Z,2.50
2018-12-20T14:17:04.479Z,2.90
2018-12-20T14:19:36.835Z,2.50
2018-12-20T14:22:09.177Z,2.90
2018-12-20T14:24:41.578Z,2.40
2018-12-20T14:27:14.003Z,3.37
2018-12-20T14:29:46.375Z,3.13
2018-12-20T14:32:18.747Z,3.37
2018-12-20T14:34:51.148Z,2.97
2018-12-20T14:37:23.478Z,3.70
2018-12-20T14:39:55.834Z,2.53
2018-12-20T14:42:28.434Z,2.90
2018-12-20T14:45:00.801Z,3.20
2018-12-20T14:47:33.383Z,2.67
2018-12-20T14:50:07.737Z,2.80
2018-12-20T14:52:40.100Z,3.10
2018-12-20T14:55:12.811Z,3.33
2018-12-20T14:57:45.471Z,3.33
2018-12-20T15:00:17.910Z,2.80
2018-12-20T15:02:50.250Z,3.20
2018-12-20T15:05:22.660Z,3.27
2018-12-20T15:07:55.032Z,3.20
2018-12-20T15:10:27.458Z,3.60
2018-12-20T15:13:00.090Z,3.70
2018-12-20T15:15:32.427Z,3.70
2018-12-20T15:18:04.784Z,3.93
2018-12-20T15:20:40.760Z,3.10
2018-12-20T15:23:11.481Z,2.97
2018-12-20T15:25:44.117Z,2.90
2018-12-20T15:28:16.479Z,2.97
2018-12-20T15:30:48.857Z,2.50
2018-12-20T15:33:21.231Z,2.70
2018-12-20T15:36:00.179Z,2.80
2018-12-20T15:38:32.516Z,2.97
2018-12-20T15:41:04.894Z,2.43
2018-12-20T15:43:37.298Z,3.83
2018-12-20T15:46:09.694Z,3.57
2018-12-20T15:48:42.027Z,3.25
2018-12-20T15:51:14.442Z,2.97
2018-12-20T15:53:46.815Z,2.93
2018-12-20T15:56:19.201Z,3.83
2018-12-20T15:58:51.546Z,2.93
2018-12-20T16:01:23.942Z,3.40
2018-12-20T16:03:56.392Z,3.13
2018-12-20T16:06:28.768Z,3.00
2018-12-20T16:09:01.115Z,3.27
2018-12-20T16:11:33.482Z,2.87
2018-12-20T16:14:05.889Z,3.40
2018-12-20T16:16:38.256Z,3.07
2018-12-20T16:19:10.622Z,2.57
2018-12-20T16:21:42.979Z,2.40
2018-12-20T16:24:15.587Z,2.53
2018-12-20T16:26:47.935Z,2.57
2018-12-20T16:29:20.266Z,2.43
2018-12-20T16:31:52.681Z,2.57
2018-12-20T16:34:25.406Z,2.43
2018-12-20T16:36:57.990Z,2.53
2018-12-20T16:39:30.394Z,2.37
2018-12-20T16:42:02.758Z,2.93
2018-12-20T16:44:35.135Z,2.40
2018-12-20T16:47:07.531Z,2.10
2018-12-20T16:49:39.882Z,2.60
2018-12-20T16:52:12.277Z,2.53
2018-12-20T16:54:44.730Z,2.43
2018-12-20T16:57:17.106Z,2.10
2018-12-20T16:59:49.809Z,2.33
2018-12-20T17:02:22.525Z,2.37
2018-12-20T17:04:54.868Z,2.50
2018-12-20T17:07:27.230Z,2.40
2018-12-20T17:09:59.585Z,2.03
2018-12-20T17:12:31.974Z,3.40
2018-12-20T17:15:05.161Z,2.43
2018-12-20T17:17:37.493Z,2.80
2018-12-20T17:20:09.853Z,2.70
2018-12-20T17:22:42.527Z,2.20
2018-12-20T17:25:14.918Z,3.10
2018-12-20T17:27:47.267Z,2.83
2018-12-20T17:30:19.593Z,2.50
2018-12-20T17:32:52.019Z,2.73
2018-12-20T17:35:24.355Z,2.60
2018-12-20T17:37:56.829Z,2.70
2018-12-20T17:40:29.270Z,2.70
2018-12-20T17:43:01.711Z,2.67
2018-12-20T17:45:34.090Z,2.80
2018-12-20T17:48:06.483Z,2.90
2018-12-20T17:50:39.103Z,3.40
2018-12-20T17:53:11.843Z,3.77
2018-12-20T17:55:44.946Z,3.67
2018-12-20T17:58:17.572Z,3.77
2018-12-20T18:00:49.914Z,3.80
2018-12-20T18:03:22.274Z,3.67
2018-12-20T18:05:54.639Z,4.60
2018-12-20T18:08:27.023Z,3.83
2018-12-20T18:10:59.616Z,3.90
2018-12-20T18:13:33.042Z,4.00
2018-12-20T18:16:05.742Z,3.70
2018-12-20T18:18:38.450Z,3.53
2018-12-20T18:21:11.155Z,2.90
2018-12-20T18:23:43.559Z,3.03
2018-12-20T18:26:16.214Z,3.57
2018-12-20T18:28:48.565Z,4.00
2018-12-20T18:31:20.963Z,3.30
2018-12-20T18:33:53.410Z,3.87
2018-12-20T18:36:25.760Z,3.83
2018-12-20T18:38:58.716Z,3.27
2018-12-20T18:41:31.070Z,3.63
2018-12-20T18:44:03.825Z,3.80
2018-12-20T18:46:37.598Z,3.60
2018-12-20T18:49:10.118Z,3.57
2018-12-20T18:51:42.453Z,3.90
2018-12-20T18:54:15.106Z,3.73
2018-12-20T18:56:47.466Z,4.00
2018-12-20T18:59:19.854Z,4.27
2018-12-20T19:01:52.537Z,4.00
2018-12-20T19:04:24.904Z,5.47
2018-12-20T19:06:57.276Z,4.80
2018-12-20T19:09:29.625Z,4.67
2018-12-20T19:12:02.337Z,4.30
2018-12-20T19:14:34.666Z,5.10
2018-12-20T19:17:07.018Z,4.73
2018-12-20T19:19:39.430Z,4.90
2018-12-20T19:22:11.768Z,5.00
2018-12-20T19:24:44.162Z,5.00
2018-12-20T19:27:16.534Z,5.13
2018-12-20T19:29:49.278Z,4.67
2018-12-20T19:32:21.635Z,5.63
2018-12-20T19:34:54.035Z,4.83
2018-12-20T19:37:26.454Z,5.30
2018-12-20T19:39:58.862Z,6.00
2018-12-20T19:42:31.253Z,6.23
2018-12-20T19:45:03.909Z,7.00
2018-12-20T19:47:36.259Z,6.30
2018-12-20T19:50:09.678Z,6.33
2018-12-20T19:52:42.363Z,6.60
2018-12-20T19:55:14.747Z,6.27
2018-12-20T19:57:47.162Z,5.57
2018-12-20T20:00:21.102Z,6.07
2018-12-20T20:02:53.443Z,6.90
2018-12-20T20:05:25.847Z,7.33
2018-12-20T20:07:58.182Z,8.03
2018-12-20T20:10:30.552Z,7.87
2018-12-20T20:13:02.890Z,7.90
2018-12-20T20:15:35.290Z,7.37
2018-12-20T20:18:07.671Z,6.73
2018-12-20T20:20:40.044Z,5.33
2018-12-20T20:23:12.664Z,5.07
2018-12-20T20:25:45.086Z,4.47
2018-12-20T20:28:17.435Z,4.50
2018-12-20T20:30:50.363Z,4.40
2018-12-20T20:33:22.716Z,3.73
2018-12-20T20:35:55.104Z,3.97
2018-12-20T20:38:27.437Z,4.20
2018-12-20T20:40:59.789Z,3.50
2018-12-20T20:43:32.132Z,4.30
2018-12-20T20:46:04.480Z,3.73
2018-12-20T20:48:36.858Z,4.40
2018-12-20T20:51:09.529Z,4.10
2018-12-20T20:53:41.877Z,4.20
2018-12-20T20:56:14.241Z,4.03
2018-12-20T20:58:46.565Z,3.57
2018-12-20T21:01:18.920Z,4.30
2018-12-20T21:03:51.245Z,3.50
2018-12-20T21:06:23.598Z,3.93
2018-12-20T21:08:56.014Z,3.37
2018-12-20T21:11:28.361Z,3.43
2018-12-20T21:14:00.712Z,3.70
2018-12-20T21:16:33.071Z,4.10
2018-12-20T21:19:06.086Z,3.13
2018-12-20T21:21:38.495Z,3.73
2018-12-20T21:24:10.820Z,4.03
2018-12-20T21:26:43.497Z,3.87
2018-12-20T21:29:15.857Z,3.90
2018-12-20T21:31:48.200Z,3.63
2018-12-20T21:34:20.858Z,3.80
2018-12-20T21:36:53.201Z,3.20
2018-12-20T21:39:25.534Z,3.33
2018-12-20T21:41:58.019Z,4.10
2018-12-20T21:44:30.411Z,3.73
2018-12-20T21:47:02.753Z,3.77
2018-12-20T21:49:35.107Z,3.60
2018-12-20T21:52:08.430Z,3.67
2018-12-20T21:54:40.851Z,3.70
2018-12-20T21:57:13.254Z,3.63
2018-12-20T21:59:45.591Z,3.27
2018-12-20T22:02:17.922Z,3.60
2018-12-20T22:04:50.263Z,3.77
2018-12-20T22:07:22.618Z,3.03
2018-12-20T22:09:55.080Z,3.70
2018-12-20T22:12:27.437Z,3.93
2018-12-20T22:14:59.869Z,3.30
2018-12-20T22:17:32.547Z,3.23
2018-12-20T22:20:05.798Z,3.23
2018-12-20T22:22:38.123Z,3.43
2018-12-20T22:25:10.485Z,3.53
2018-12-20T22:27:42.853Z,3.40
2018-12-20T22:30:15.232Z,3.33
2018-12-20T22:32:54.384Z,3.53
2018-12-20T22:35:26.757Z,3.00
2018-12-20T22:37:59.395Z,2.77
2018-12-20T22:40:31.742Z,3.03
2018-12-20T22:43:04.113Z,3.60
2018-12-20T22:45:36.592Z,3.97
2018-12-20T22:48:08.929Z,3.63
2018-12-20T22:50:41.293Z,3.10
2018-12-20T22:53:13.674Z,2.80
2018-12-20T22:55:46.307Z,3.53
2018-12-20T22:58:18.701Z,3.80
2018-12-20T23:00:51.050Z,3.47
2018-12-20T23:03:23.422Z,3.07
2018-12-20T23:05:55.759Z,3.13
2018-12-20T23:08:28.117Z,2.90
2018-12-20T23:11:00.773Z,2.80
2018-12-20T23:13:33.153Z,3.10
2018-12-20T23:16:05.806Z,3.37
2018-12-20T23:18:38.174Z,3.40
2018-12-20T23:21:10.550Z,3.20
2018-12-20T23:23:42.902Z,3.40
2018-12-20T23:26:15.288Z,3.10
2018-12-20T23:28:47.650Z,3.17
2018-12-20T23:31:19.988Z,3.00
2018-12-20T23:33:52.351Z,2.87
2018-12-20T23:36:24.991Z,3.07
2018-12-20T23:38:57.342Z,3.60
2018-12-20T23:41:29.682Z,3.07
2018-12-20T23:44:02.042Z,2.60
2018-12-20T23:46:34.391Z,2.40
2018-12-20T23:49:07.152Z,2.90
2018-12-20T23:51:45.324Z,2.50
2018-12-20T23:54:13.922Z,2.80
2018-12-20T23:56:46.255Z,3.50
2018-12-20T23:59:18.608Z,3.27
